Silverpeak, Nevada
Current Conditions -  °F | °C
As of 3:56 PM on Sunday 21 Dec 2014 (Local Time) from KTPH Reporting Station
Clear Clear  
Wind Chill: 54°   Ceiling: Unl
Heat Index: 54°   Visibility: 10mi
Dew Point: 35°   Wind: 24mph
Humidity: 49%   Direction: 330°NNW
Pressure: 30.16"   Gusts: 33mph
Location:  37.75°N, 117.64°W
Report Text: KTPH 212356Z AUTO 33021G29KT 10SM CLR 12/02 A3016 RMK AO2 PK WND 33033/2311 SLP205 T01220017 10139 20039 56005
Loading
Personal Weather Stations






























Interactive Weather Map New forecast layout! Learn more

10-Day Weather Forecast

Advertisements
Track Severe Weather on mobile